| time (UTC) | temp C | wind direction | speed KPH | gust KPH | rain 1hr cm | rain 24hr cm | rain mn cm | humidity % | barometer mb |
| 20260904163014 | 12 | 152 | 1.6 | 8.0 | 0.00 | 0.58 | 0.15 | 96 | 1010.5 |
| 20260904161514 | 12 | 152 | 0.0 | 8.0 | 0.00 | 0.58 | 0.15 | 96 | 1010.5 |
| 20260904160012 | 12 | 152 | 0.0 | 3.2 | 0.00 | 0.69 | 0.15 | 96 | 1010.5 |
| 20260904154510 | 12 | 151 | 1.6 | 6.4 | 0.00 | 0.69 | 0.15 | 96 | 1010.5 |
| 20260904153011 | 12 | 146 | 0.0 | 4.8 | 0.00 | 0.69 | 0.15 | 96 | 1010.4 |
| 20260904151507 | 11 | 146 | 1.6 | 9.7 | 0.00 | 0.69 | 0.15 | 96 | 1010.2 |
| 20260904150005 | 11 | 178 | 0.0 | 4.8 | 0.00 | 0.69 | 0.15 | 96 | 1010.2 |
| 20260904144502 | -17 | 0.0 | 0.0 | 0.00 | 0.69 | 0.15 | 1010.0 | ||
| 20260904143102 | -17 | 0.0 | 0.0 | 0.00 | 0.69 | 0.15 | 1009.9 | ||
| 20260904141557 | -17 | 0.0 | 0.0 | 0.00 | 0.69 | 0.15 | 1009.8 | ||
| 20260904140049 | -17 | 0.0 | 0.0 | 0.00 | 0.69 | 0.15 | 1009.6 | ||
| 20260904134544 | -17 | 0.0 | 0.0 | 0.00 | 0.69 | 0.15 | 1009.3 | ||
| 20260904133040 | -17 | 0.0 | 0.0 | 0.00 | 0.69 | 0.15 | 1009.2 | ||
| 20260904131535 | -17 | 0.0 | 0.0 | 0.00 | 0.69 | 0.15 | 1009.0 | ||
| 20260904130032 | -17 | 0.0 | 0.0 | 0.00 | 0.69 | 0.15 | 1008.9 | ||
| 20260904124526 | -17 | 0.0 | 0.0 | 0.00 | 0.69 | 0.15 | 1008.8 | ||
| 20260904123026 | -17 | 0.0 | 0.0 | 0.00 | 0.69 | 0.15 | 1008.8 | ||
| 20260904121518 | -17 | 0.0 | 0.0 | 0.00 | 0.69 | 0.15 | 1008.7 | ||
| 20260904120014 | -17 | 0.0 | 0.0 | 0.05 | 0.71 | 0.15 | 1008.6 | ||
| 20260904114509 | -17 | 0.0 | 0.0 | 0.10 | 0.71 | 0.15 | 1008.6 | ||
| 20260904113005 | 10 | 180 | 0.0 | 0.0 | 0.10 | 0.71 | 0.15 | 100 | 1008.5 |
| 20260904111503 | 11 | 158 | 0.0 | 0.0 | 0.10 | 0.71 | 0.15 | 96 | 1008.5 |
| 20260904110002 | 11 | 157 | 0.0 | 0.0 | 0.08 | 0.69 | 0.10 | 96 | 1008.4 |
| 20260904104502 | 11 | 153 | 0.0 | 0.0 | 0.03 | 0.64 | 0.05 | 96 | 1008.3 |
| 20260904103107 | 11 | 153 | 0.0 | 0.0 | 0.03 | 0.64 | 0.05 | 96 | 1008.4 |
| 20260904101559 | 11 | 153 | 0.0 | 0.0 | 0.03 | 0.64 | 0.05 | 96 | 1008.3 |
| 20260904100121 | 11 | 153 | 0.0 | 0.0 | 0.00 | 0.61 | 0.03 | 96 | 1008.2 |
| 20260904094556 | 10 | 153 | 0.0 | 0.0 | 0.03 | 0.61 | 0.03 | 96 | 1008.1 |
| 20260904093102 | 10 | 151 | 0.0 | 0.0 | 0.03 | 0.61 | 0.03 | 96 | 1008.0 |
| 20260904091558 | 10 | 149 | 0.0 | 0.0 | 0.03 | 0.61 | 0.03 | 96 | 1007.9 |
| 20260904090054 | 10 | 150 | 0.0 | 0.0 | 0.03 | 0.61 | 0.03 | 96 | 1007.9 |
| 20260904084553 | 10 | 150 | 0.0 | 0.0 | 0.00 | 0.58 | 0.00 | 96 | 1007.8 |
| 20260904083055 | 10 | 148 | 0.0 | 0.0 | 0.00 | 0.58 | 0.00 | 96 | 1008.0 |
| 20260904081552 | 10 | 149 | 0.0 | 0.0 | 0.00 | 0.58 | 0.00 | 96 | 1007.9 |
| 20260904080049 | 11 | 145 | 0.0 | 0.0 | 0.00 | 0.58 | 0.00 | 96 | 1008.0 |
| 20260904074600 | 11 | 153 | 0.0 | 0.0 | 0.00 | 0.58 | 0.00 | 96 | 1008.0 |
| 20260904073046 | 11 | 151 | 0.0 | 0.0 | 0.00 | 0.58 | 0.00 | 96 | 1008.1 |
| 20260904071609 | 11 | 151 | 0.0 | 0.0 | 0.00 | 0.58 | 0.00 | 96 | 1008.0 |
| 20260904070047 | 11 | 150 | 0.0 | 3.2 | 0.00 | 0.58 | 0.58 | 96 | 1007.9 |
| 20260904064601 | 11 | 147 | 3.2 | 4.8 | 0.00 | 0.58 | 0.58 | 96 | 1007.9 |
| 20260904063050 | 11 | 146 | 0.0 | 1.6 | 0.00 | 0.58 | 0.58 | 96 | 1007.9 |
| 20260904061542 | 11 | 147 | 0.0 | 0.0 | 0.00 | 0.58 | 0.58 | 96 | 1007.8 |
| 20260904060042 | 11 | 146 | 0.0 | 1.6 | 0.00 | 0.58 | 0.58 | 96 | 1007.9 |
| 20260904054540 | 11 | 146 | 0.0 | 0.0 | 0.00 | 0.58 | 0.58 | 96 | 1008.0 |
| 20260904053049 | 11 | 146 | 0.0 | 3.2 | 0.00 | 0.58 | 0.58 | 96 | 1008.1 |
| 20260904051540 | 11 | 146 | 3.2 | 6.4 | 0.00 | 0.58 | 0.58 | 96 | 1008.1 |
| 20260904050042 | 11 | 144 | 3.2 | 4.8 | 0.00 | 0.58 | 0.58 | 96 | 1008.1 |
| 20260904044538 | 11 | 157 | 1.6 | 4.8 | 0.00 | 0.58 | 0.58 | 96 | 1008.1 |
| 20260904043038 | 11 | 158 | 1.6 | 4.8 | 0.00 | 0.58 | 0.58 | 96 | 1008.1 |
| 20260904041542 | 11 | 158 | 4.8 | 8.0 | 0.00 | 0.58 | 0.58 | 96 | 1008.1 |
| 20260904040037 | 11 | 166 | 3.2 | 9.7 | 0.03 | 0.58 | 0.58 | 96 | 1008.0 |
| 20260904034535 | 11 | 159 | 6.4 | 14.5 | 0.05 | 0.58 | 0.58 | 96 | 1007.9 |
| 20260904033036 | 11 | 178 | 1.6 | 6.4 | 0.10 | 0.58 | 0.58 | 95 | 1007.8 |
| 20260904031536 | 11 | 178 | 1.6 | 6.4 | 0.13 | 0.58 | 0.58 | 95 | 1007.5 |
| 20260904030037 | 11 | 178 | 6.4 | 14.5 | 0.10 | 0.56 | 0.56 | 95 | 1007.6 |
| 20260904024533 | 12 | 179 | 11.3 | 17.7 | 0.08 | 0.53 | 0.53 | 94 | 1007.6 |
| 20260904023033 | 13 | 178 | 6.4 | 11.3 | 0.03 | 0.48 | 0.48 | 92 | 1007.5 |
| 20260904021538 | 13 | 179 | 1.6 | 4.8 | 0.00 | 0.46 | 0.46 | 92 | 1007.3 |
| 20260904020037 | 13 | 179 | 1.6 | 6.4 | 0.00 | 0.46 | 0.46 | 91 | 1007.3 |
| 20260904014532 | 13 | 179 | 3.2 | 6.4 | 0.00 | 0.46 | 0.46 | 90 | 1007.3 |
| 20260904013031 | 13 | 179 | 3.2 | 11.3 | 0.00 | 0.46 | 0.46 | 89 | 1007.2 |
| 20260904011531 | 13 | 153 | 9.7 | 14.5 | 0.00 | 0.46 | 0.46 | 88 | 1007.3 |
| 20260904010030 | 13 | 154 | 11.3 | 17.7 | 0.00 | 0.46 | 0.46 | 87 | 1007.3 |
| 20260904004529 | 13 | 178 | 9.7 | 16.1 | 0.00 | 0.46 | 0.46 | 87 | 1007.3 |
| 20260904003030 | 13 | 178 | 4.8 | 11.3 | 0.00 | 0.46 | 0.46 | 89 | 1007.3 |
| 20260904001527 | 13 | 179 | 11.3 | 17.7 | 0.00 | 0.46 | 0.46 | 94 | 1007.4 |
| 20260904000027 | 12 | 178 | 9.7 | 19.3 | 0.00 | 0.46 | 0.46 | 94 | 1007.5 |
| 20260903234526 | 12 | 178 | 9.7 | 19.3 | 0.00 | 0.46 | 0.46 | 95 | 1007.5 |
| 20260903233033 | 12 | 179 | 12.9 | 19.3 | 0.00 | 0.46 | 0.46 | 95 | 1007.5 |
| 20260903231526 | 12 | 164 | 9.7 | 17.7 | 0.03 | 0.46 | 0.46 | 95 | 1007.5 |
| 20260903230027 | 12 | 176 | 12.9 | 17.7 | 0.03 | 0.48 | 0.46 | 95 | 1007.5 |
| 20260903224533 | 12 | 179 | 14.5 | 24.1 | 0.03 | 0.48 | 0.46 | 95 | 1007.6 |
| 20260903223024 | 12 | 171 | 14.5 | 22.5 | 0.03 | 0.48 | 0.46 | 95 | 1007.8 |
| 20260903221541 | 12 | 179 | 14.5 | 24.1 | 0.03 | 0.46 | 0.43 | 95 | 1008.0 |
| 20260903220023 | 12 | 178 | 14.5 | 22.5 | 0.03 | 0.61 | 0.43 | 95 | 1008.0 |
| 20260903214522 | 12 | 178 | 11.3 | 19.3 | 0.03 | 0.61 | 0.43 | 94 | 1007.8 |
| 20260903213023 | 13 | 179 | 11.3 | 19.3 | 0.03 | 0.61 | 0.43 | 90 | 1007.8 |
| 20260903211520 | 13 | 179 | 9.7 | 25.7 | 0.03 | 0.58 | 0.41 | 90 | 1007.9 |
| 20260903210020 | 13 | 178 | 14.5 | 30.6 | 0.08 | 0.58 | 0.41 | 90 | 1007.9 |
| 20260903204519 | 13 | 179 | 14.5 | 25.7 | 0.10 | 0.58 | 0.41 | 92 | 1007.8 |
| 20260903203025 | 12 | 178 | 12.9 | 22.5 | 0.15 | 0.58 | 0.41 | 93 | 1007.9 |
| 20260903201518 | 12 | 178 | 20.9 | 35.4 | 0.18 | 0.56 | 0.38 | 91 | 1007.8 |
| 20260903200032 | 13 | 154 | 11.3 | 20.9 | 0.13 | 0.61 | 0.33 | 93 | 1007.8 |
| 20260903194533 | 13 | 178 | 14.5 | 29.0 | 0.10 | 0.58 | 0.30 | 93 | 1007.7 |
| 20260903193020 | 13 | 178 | 16.1 | 29.0 | 0.05 | 0.53 | 0.25 | 92 | 1007.8 |
| 20260903191515 | 13 | 179 | 29.0 | 41.8 | 0.00 | 0.48 | 0.20 | 88 | 1007.6 |
| 20260903190012 | 13 | 178 | 20.9 | 30.6 | 0.00 | 0.79 | 0.20 | 95 | 1007.5 |
| 20260903184510 | 13 | 179 | 16.1 | 24.1 | 0.00 | 0.79 | 0.20 | 95 | 1007.7 |
| 20260903183009 | 12 | 179 | 19.3 | 29.0 | 0.00 | 0.79 | 0.20 | 95 | 1007.9 |
| 20260903181508 | 12 | 174 | 24.1 | 41.8 | 0.03 | 0.79 | 0.20 | 95 | 1007.8 |
| 20260903180020 | 12 | 179 | 22.5 | 32.2 | 0.03 | 0.97 | 0.20 | 96 | 1007.7 |
| 20260903174508 | 13 | 178 | 22.5 | 33.8 | 0.03 | 0.97 | 0.20 | 96 | 1007.5 |
| 20260903173006 | 12 | 154 | 12.9 | 22.5 | 0.05 | 0.97 | 0.20 | 96 | 1007.6 |
| 20260903171506 | 12 | 179 | 11.3 | 22.5 | 0.03 | 0.94 | 0.18 | 96 | 1007.6 |
| 20260903170004 | 12 | 178 | 16.1 | 25.7 | 0.03 | 1.12 | 0.18 | 96 | 1007.6 |
| 20260903164503 | 12 | 179 | 9.7 | 14.5 | 0.08 | 1.12 | 0.18 | 96 | 1007.7 |